Time;durP1;ratioP1;P1;durP2;ratioP2;P2;SDS_P1;SDS_P2;PMS_P1;PMS_P2;Temp;Humidity;BMP_temperature;BMP_pressure;BME280_temperature;BME280_humidity;BME280_pressure;Samples;Min_cycle;Max_cycle;Signal;HPM_P1;HPM_P2
2023/03/13 00:00:00;;;;;;;5.20;4.80;;;;;;;-145.53;100.00;64590.91;6256907;28;20440;-66
2023/03/13 00:03:08;;;;;;;5.43;5.00;;;;;;;-145.53;100.00;64590.91;6265513;28;20956;-67
2023/03/13 00:06:19;;;;;;;5.30;4.90;;;;;;;-145.53;100.00;64590.91;6254077;28;20455;-68
2023/03/13 00:09:29;;;;;;;5.77;5.33;;;;;;;-145.53;100.00;64590.91;6261475;28;20440;-67
2023/03/13 00:12:41;;;;;;;5.23;4.80;;;;;;;-145.53;100.00;64590.91;6247197;28;20941;-68
2023/03/13 00:16:05;;;;;;;5.50;5.00;;;;;;;-145.53;100.00;64590.91;6255544;28;20419;-67
2023/03/13 00:19:11;;;;;;;5.23;4.83;;;;;;;-145.53;100.00;64590.91;6247681;28;20451;-67
2023/03/13 00:22:16;;;;;;;5.30;4.87;;;;;;;-145.53;100.00;64590.91;6250782;28;20436;-67
2023/03/13 00:25:25;;;;;;;5.17;4.77;;;;;;;-145.53;100.00;64590.91;6260673;28;20420;-67
2023/03/13 00:28:38;;;;;;;5.63;5.17;;;;;;;-145.53;100.00;64590.91;6250521;28;20424;-67
2023/03/13 00:31:44;;;;;;;5.33;4.93;;;;;;;-145.53;100.00;64590.91;6252267;28;20471;-66
2023/03/13 00:34:49;;;;;;;5.10;4.70;;;;;;;-145.53;100.00;64590.91;6252125;28;20437;-68
2023/03/13 00:37:59;;;;;;;4.70;4.30;;;;;;;-145.53;100.00;64590.91;6250042;28;20459;-66
2023/03/13 00:41:11;;;;;;;5.40;5.00;;;;;;;-145.53;100.00;64590.91;6246443;28;20463;-71
2023/03/13 00:44:23;;;;;;;5.43;5.03;;;;;;;-145.53;100.00;64590.91;6255847;28;20439;-71
2023/03/13 00:47:36;;;;;;;5.83;5.23;;;;;;;-145.53;100.00;64590.91;6258398;28;20768;-71
2023/03/13 00:50:43;;;;;;;5.03;4.60;;;;;;;-145.53;100.00;64590.91;6262395;28;20478;-70
2023/03/13 00:53:52;;;;;;;5.37;4.87;;;;;;;-145.53;100.00;64590.91;6259524;28;21021;-71
2023/03/13 00:57:03;;;;;;;5.23;4.83;;;;;;;-145.53;100.00;64590.91;6250280;28;20909;-70
2023/03/13 01:00:12;;;;;;;6.20;5.57;;;;;;;-145.53;100.00;64590.91;6246036;28;20479;-62
2023/03/13 01:03:21;;;;;;;5.37;4.97;;;;;;;-145.53;100.00;64590.91;6269181;22;20455;-63
2023/03/13 01:06:31;;;;;;;5.90;5.40;;;;;;;-145.53;100.00;64590.91;6275042;28;20470;-62
2023/03/13 01:09:43;;;;;;;6.50;6.00;;;;;;;-145.53;100.00;64590.91;6274244;28;20445;-62
2023/03/13 01:12:54;;;;;;;6.50;5.97;;;;;;;-145.53;100.00;64590.91;6295962;28;20904;-61
2023/03/13 01:16:11;;;;;;;6.10;5.53;;;;;;;-145.53;100.00;64590.91;6269592;28;20446;-61
2023/03/13 01:19:19;;;;;;;6.03;5.53;;;;;;;-145.53;100.00;64590.91;6295856;28;20426;-61
2023/03/13 01:22:28;;;;;;;6.40;5.90;;;;;;;-145.53;100.00;64590.91;6276987;28;20435;-61
2023/03/13 01:25:37;;;;;;;6.57;5.97;;;;;;;-145.53;100.00;64590.91;6279860;28;20431;-61
2023/03/13 01:28:45;;;;;;;6.90;6.20;;;;;;;-145.53;100.00;64590.91;6288195;28;20934;-61
2023/03/13 01:31:59;;;;;;;8.30;7.60;;;;;;;-145.53;100.00;64590.91;6279103;28;20908;-61
2023/03/13 01:35:10;;;;;;;7.33;6.73;;;;;;;-145.53;100.00;64590.91;6276285;28;20463;-62
2023/03/13 01:38:20;;;;;;;7.30;6.70;;;;;;;-145.53;100.00;64590.91;6288713;28;20440;-61
2023/03/13 01:41:33;;;;;;;6.37;5.87;;;;;;;-145.53;100.00;64590.91;6292928;28;20453;-61
2023/03/13 01:44:54;;;;;;;7.13;6.53;;;;;;;-145.53;100.00;64590.91;6287476;28;20482;-61
2023/03/13 01:48:06;;;;;;;6.63;6.13;;;;;;;-145.53;100.00;64590.91;6275769;28;20437;-61
2023/03/13 01:51:17;;;;;;;8.83;8.03;;;;;;;-145.53;100.00;64590.91;6281814;28;20457;-61
2023/03/13 01:54:34;;;;;;;7.30;6.60;;;;;;;-145.53;100.00;64590.91;6299331;28;20504;-61
2023/03/13 01:57:45;;;;;;;7.30;6.60;;;;;;;-145.53;100.00;64590.91;6281843;28;20426;-62
2023/03/13 02:00:52;;;;;;;7.23;6.63;;;;;;;-145.53;100.00;64590.91;6291526;28;20992;-62
2023/03/13 02:04:09;;;;;;;8.00;7.30;;;;;;;-145.53;100.00;64590.91;6291967;28;20442;-62
2023/03/13 02:07:21;;;;;;;7.30;6.70;;;;;;;-145.53;100.00;64590.91;6284034;28;20530;-63
2023/03/13 02:10:33;;;;;;;7.50;6.90;;;;;;;-145.53;100.00;64590.91;6273592;28;20942;-63
2023/03/13 02:13:38;;;;;;;7.73;7.03;;;;;;;-145.53;100.00;64590.91;6275268;28;20439;-61
2023/03/13 02:16:50;;;;;;;7.70;7.10;;;;;;;-145.53;100.00;64590.91;6273915;28;20432;-62
2023/03/13 02:20:01;;;;;;;7.70;7.03;;;;;;;-145.53;100.00;64590.91;6277381;28;20446;-61
2023/03/13 02:23:19;;;;;;;6.57;6.07;;;;;;;-145.53;100.00;64590.91;6272803;28;20497;-61
2023/03/13 02:26:27;;;;;;;7.00;6.40;;;;;;;-145.53;100.00;64590.91;6267775;28;20447;-62
2023/03/13 02:29:35;;;;;;;7.30;6.70;;;;;;;-145.53;100.00;64590.91;6273908;28;20950;-61
2023/03/13 02:32:46;;;;;;;6.70;6.10;;;;;;;-145.53;100.00;64590.91;6272433;28;20459;-61
2023/03/13 02:35:54;;;;;;;6.30;5.70;;;;;;;-145.53;100.00;64590.91;6278981;28;20476;-62
2023/03/13 02:39:07;;;;;;;6.53;6.00;;;;;;;-145.53;100.00;64590.91;6279295;28;20905;-62
2023/03/13 02:42:16;;;;;;;7.10;6.50;;;;;;;-145.53;100.00;64590.91;6281127;28;20431;-62
2023/03/13 02:45:26;;;;;;;6.90;6.30;;;;;;;-145.53;100.00;64590.91;6282043;28;20589;-62
2023/03/13 02:48:37;;;;;;;7.87;7.17;;;;;;;-145.53;100.00;64590.91;6264085;28;20526;-63
2023/03/13 02:51:47;;;;;;;6.87;6.27;;;;;;;-145.53;100.00;64590.91;6272545;28;20416;-61
2023/03/13 02:55:03;;;;;;;6.20;5.70;;;;;;;-145.53;100.00;64590.91;6272710;28;20450;-61
2023/03/13 02:58:17;;;;;;;7.43;6.83;;;;;;;-145.53;100.00;64590.91;6251076;28;20458;-62
2023/03/13 03:01:27;;;;;;;6.73;6.13;;;;;;;-145.53;100.00;64590.91;6280967;28;20802;-62
2023/03/13 03:04:41;;;;;;;6.90;6.27;;;;;;;-145.53;100.00;64590.91;6279742;28;20431;-63
2023/03/13 03:07:51;;;;;;;6.90;6.30;;;;;;;-145.53;100.00;64590.91;6278684;28;20837;-61
2023/03/13 03:11:01;;;;;;;7.27;6.63;;;;;;;-145.53;100.00;64590.91;6277685;28;20572;-61
2023/03/13 03:14:13;;;;;;;7.00;6.40;;;;;;;-145.53;100.00;64590.91;6274259;28;20428;-60
2023/03/13 03:17:22;;;;;;;7.10;6.50;;;;;;;-145.53;100.00;64590.91;6272864;28;20771;-61
2023/03/13 03:20:33;;;;;;;6.90;6.30;;;;;;;-145.53;100.00;64590.91;6271665;28;20430;-60
2023/03/13 03:23:40;;;;;;;7.67;6.97;;;;;;;-145.53;100.00;64590.91;6274155;28;20450;-62
2023/03/13 03:26:52;;;;;;;7.23;6.57;;;;;;;-145.53;100.00;64590.91;6274175;28;20424;-61
2023/03/13 03:30:01;;;;;;;6.80;6.30;;;;;;;-145.53;100.00;64590.91;6272562;28;20447;-61
2023/03/13 03:33:18;;;;;;;7.30;6.70;;;;;;;-145.53;100.00;64590.91;6259041;28;21018;-61
2023/03/13 03:36:29;;;;;;;7.57;6.93;;;;;;;-145.53;100.00;64590.91;6280512;28;20432;-61
2023/03/13 03:39:38;;;;;;;6.70;6.10;;;;;;;-145.53;100.00;64590.91;6293085;28;20906;-61
2023/03/13 03:42:52;;;;;;;7.60;6.90;;;;;;;-145.53;100.00;64590.91;6290936;28;20467;-60
2023/03/13 03:46:01;;;;;;;6.53;5.90;;;;;;;-145.53;100.00;64590.91;6277554;28;20450;-61
2023/03/13 03:49:11;;;;;;;7.13;6.53;;;;;;;-145.53;100.00;64590.91;6292295;28;20422;-61
2023/03/13 03:52:20;;;;;;;7.13;6.43;;;;;;;-145.53;100.00;64590.91;6296951;28;20441;-61
2023/03/13 03:55:28;;;;;;;7.20;6.63;;;;;;;-145.53;100.00;64590.91;6284096;28;20965;-62
2023/03/13 03:58:40;;;;;;;7.00;6.40;;;;;;;-145.53;100.00;64590.91;6292878;28;20442;-62
2023/03/13 04:01:52;;;;;;;7.17;6.57;;;;;;;-145.53;100.00;64590.91;6295018;28;20487;-61
2023/03/13 04:05:03;;;;;;;7.50;6.90;;;;;;;-145.53;100.00;64590.91;6296850;28;20778;-61
2023/03/13 04:08:15;;;;;;;7.20;6.60;;;;;;;-145.53;100.00;64590.91;6269461;28;20460;-62
2023/03/13 04:11:26;;;;;;;6.17;5.67;;;;;;;-145.53;100.00;64590.91;6283400;28;20432;-61
2023/03/13 04:14:34;;;;;;;6.17;5.67;;;;;;;-145.53;100.00;64590.91;6275261;28;20446;-61
2023/03/13 04:17:46;;;;;;;6.43;5.93;;;;;;;-145.53;100.00;64590.91;6280373;28;20475;-60
2023/03/13 04:21:04;;;;;;;6.77;5.80;;;;;;;-145.53;100.00;64590.91;6250705;28;20439;-62
2023/03/13 04:24:14;;;;;;;5.80;5.30;;;;;;;-145.53;100.00;64590.91;6271431;28;20431;-61
2023/03/13 04:27:21;;;;;;;7.03;6.43;;;;;;;-145.53;100.00;64590.91;6284040;28;20453;-60
2023/03/13 04:30:26;;;;;;;7.40;6.70;;;;;;;-145.53;100.00;64590.91;6264462;28;20442;-60
2023/03/13 04:33:36;;;;;;;6.50;6.00;;;;;;;-145.53;100.00;64590.91;6270661;28;20423;-60
2023/03/13 04:36:42;;;;;;;6.90;6.40;;;;;;;-145.53;100.00;64590.91;6261473;28;20420;-60
2023/03/13 04:39:47;;;;;;;7.13;6.63;;;;;;;-145.53;100.00;64590.91;6271272;28;20617;-60
2023/03/13 04:42:52;;;;;;;7.13;6.53;;;;;;;-145.53;100.00;64590.91;6260153;28;20940;-61
2023/03/13 04:46:01;;;;;;;6.73;6.23;;;;;;;-145.53;100.00;64590.91;6271259;28;20494;-63
2023/03/13 04:49:11;;;;;;;6.77;5.33;;;;;;;-145.53;100.00;64590.91;6273733;28;20501;-59
2023/03/13 04:52:18;;;;;;;5.90;5.40;;;;;;;-145.53;100.00;64590.91;6265198;28;21073;-58
2023/03/13 04:55:30;;;;;;;4.60;4.20;;;;;;;-145.53;100.00;64590.91;6268745;28;20481;-57
2023/03/13 04:58:41;;;;;;;5.07;4.67;;;;;;;-145.53;100.00;64590.91;6277885;28;20982;-59
2023/03/13 05:01:54;;;;;;;5.70;4.60;;;;;;;-145.53;100.00;64590.91;6279101;28;20487;-58
2023/03/13 05:05:01;;;;;;;7.33;4.47;;;;;;;-145.53;100.00;64590.91;6253385;28;20439;-58
2023/03/13 05:08:05;;;;;;;5.53;5.07;;;;;;;-145.53;100.00;64590.91;6272982;28;20439;-59
2023/03/13 05:11:11;;;;;;;6.00;5.40;;;;;;;-145.53;100.00;64590.91;6282280;28;20593;-58
2023/03/13 05:14:20;;;;;;;5.50;4.40;;;;;;;-145.53;100.00;64590.91;6283998;28;20466;-57
2023/03/13 05:17:26;;;;;;;6.10;5.50;;;;;;;-145.53;100.00;64590.91;6263352;28;20446;-61
2023/03/13 05:20:38;;;;;;;5.37;4.80;;;;;;;-145.53;100.00;64590.91;6273458;28;20455;-60
2023/03/13 05:23:49;;;;;;;5.17;4.40;;;;;;;-145.53;100.00;64590.91;6275211;28;20875;-61
2023/03/13 05:26:58;;;;;;;5.87;4.47;;;;;;;-145.53;100.00;64590.91;6264629;28;20941;-61
2023/03/13 05:30:09;;;;;;;5.77;4.90;;;;;;;-145.53;100.00;64590.91;6274411;28;20442;-61
2023/03/13 05:33:22;;;;;;;4.90;4.40;;;;;;;-145.53;100.00;64590.91;6274860;28;20915;-60
2023/03/13 05:36:32;;;;;;;4.97;4.57;;;;;;;-145.53;100.00;64590.91;6274967;28;20439;-60
2023/03/13 05:39:43;;;;;;;5.30;4.70;;;;;;;-145.53;100.00;64590.91;6263325;28;20439;-60
2023/03/13 05:42:53;;;;;;;5.40;4.90;;;;;;;-145.53;100.00;64590.91;6274516;28;20519;-60
2023/03/13 05:46:03;;;;;;;6.77;6.17;;;;;;;-145.53;100.00;64590.91;6274144;28;20846;-60
2023/03/13 05:49:10;;;;;;;6.30;5.80;;;;;;;-145.53;100.00;64590.91;6269292;28;20473;-61
2023/03/13 05:52:27;;;;;;;6.73;6.23;;;;;;;-145.53;100.00;64590.91;6269039;28;20435;-62
2023/03/13 05:55:37;;;;;;;8.07;7.27;;;;;;;-145.53;100.00;64590.91;6274852;28;20514;-61
2023/03/13 05:58:49;;;;;;;8.30;7.60;;;;;;;-145.53;100.00;64590.91;6274556;28;20554;-60
2023/03/13 06:01:58;;;;;;;9.10;8.20;;;;;;;-145.53;100.00;64590.91;6262974;28;20458;-61
2023/03/13 06:05:08;;;;;;;9.30;8.50;;;;;;;-145.53;100.00;64590.91;6274451;28;20423;-61
2023/03/13 06:08:24;;;;;;;9.77;8.77;;;;;;;-145.53;100.00;64590.91;6273404;28;20909;-61
2023/03/13 06:11:36;;;;;;;8.77;8.00;;;;;;;-145.53;100.00;64590.91;6274311;28;20502;-60
2023/03/13 06:14:46;;;;;;;8.80;8.00;;;;;;;-145.53;100.00;64590.91;6265241;28;20467;-61
2023/03/13 06:17:52;;;;;;;8.77;7.83;;;;;;;-145.53;100.00;64590.91;6273037;28;20458;-61
2023/03/13 06:21:03;;;;;;;10.40;9.30;;;;;;;-145.53;100.00;64590.91;6273994;28;20428;-60
2023/03/13 06:24:14;;;;;;;9.73;8.83;;;;;;;-145.53;100.00;64590.91;6263552;28;20930;-60
2023/03/13 06:27:25;;;;;;;9.57;8.57;;;;;;;-145.53;100.00;64590.91;6274083;28;20470;-60
2023/03/13 06:30:38;;;;;;;9.83;8.83;;;;;;;-145.53;100.00;64590.91;6273790;28;20435;-61
2023/03/13 06:33:46;;;;;;;10.00;9.13;;;;;;;-145.53;100.00;64590.91;6273794;28;20438;-60
2023/03/13 06:36:57;;;;;;;9.50;8.60;;;;;;;-145.53;100.00;64590.91;6262599;28;20536;-60
2023/03/13 06:40:10;;;;;;;10.17;9.30;;;;;;;-145.53;100.00;64590.91;6248950;28;20527;-61
2023/03/13 06:43:23;;;;;;;9.43;8.53;;;;;;;-145.53;100.00;64590.91;6248533;28;20483;-61
2023/03/13 06:46:32;;;;;;;9.40;8.50;;;;;;;-145.53;100.00;64590.91;6242898;28;20851;-60
2023/03/13 06:49:44;;;;;;;9.30;8.50;;;;;;;-145.53;100.00;64590.91;6246779;28;20436;-61
2023/03/13 06:52:56;;;;;;;10.40;9.30;;;;;;;-145.53;100.00;64590.91;6248666;28;20433;-61
2023/03/13 06:56:12;;;;;;;10.77;8.93;;;;;;;-145.53;100.00;64590.91;6248436;28;20937;-61
2023/03/13 06:59:19;;;;;;;9.07;8.27;;;;;;;-145.53;100.00;64590.91;6236827;28;20547;-61
2023/03/13 07:02:32;;;;;;;9.70;8.80;;;;;;;-145.53;100.00;64590.91;6247871;28;20540;-61
2023/03/13 07:05:44;;;;;;;9.20;8.30;;;;;;;-145.53;100.00;64590.91;6248702;28;20424;-61
2023/03/13 07:08:56;;;;;;;9.50;8.60;;;;;;;-145.53;100.00;64590.91;6259552;28;20475;-61
2023/03/13 07:12:06;;;;;;;11.13;8.77;;;;;;;-145.53;100.00;64590.91;6266776;28;20962;-60
2023/03/13 07:15:14;;;;;;;9.17;8.40;;;;;;;-145.53;100.00;64590.91;6273144;28;20473;-59
2023/03/13 07:18:25;;;;;;;9.20;8.40;;;;;;;-145.53;100.00;64590.91;6272954;28;20424;-58
2023/03/13 07:21:35;;;;;;;8.70;7.90;;;;;;;-145.53;100.00;64590.91;6260986;28;20474;-58
2023/03/13 07:24:45;;;;;;;9.30;8.50;;;;;;;-145.53;100.00;64590.91;6272442;28;20461;-58
2023/03/13 07:27:56;;;;;;;8.67;7.93;;;;;;;-145.53;100.00;64590.91;6272861;28;20411;-60
2023/03/13 07:31:10;;;;;;;8.87;8.07;;;;;;;-145.53;100.00;64590.91;6272446;28;20418;-60
2023/03/13 07:34:20;;;;;;;8.13;7.43;;;;;;;-145.53;100.00;64590.91;6261419;28;20455;-58
2023/03/13 07:37:32;;;;;;;8.20;7.50;;;;;;;-145.53;100.00;64590.91;6272253;28;20412;-59
2023/03/13 07:40:50;;;;;;;8.30;7.50;;;;;;;-145.53;100.00;64590.91;6272458;28;20427;-61
2023/03/13 07:44:04;;;;;;;7.63;7.03;;;;;;;-145.53;100.00;64590.91;6261470;28;20945;-61
2023/03/13 07:47:16;;;;;;;8.30;7.43;;;;;;;-145.53;100.00;64590.91;6272096;28;20446;-60
2023/03/13 07:50:26;;;;;;;7.90;7.20;;;;;;;-145.53;100.00;64590.91;6272264;28;20889;-60
2023/03/13 07:53:35;;;;;;;8.00;7.40;;;;;;;-145.53;100.00;64590.91;6271738;28;20415;-60
2023/03/13 07:56:44;;;;;;;8.03;7.17;;;;;;;-145.53;100.00;64590.91;6260787;28;20439;-61
2023/03/13 07:59:57;;;;;;;8.67;7.77;;;;;;;-145.53;100.00;64590.91;6272032;28;20420;-62
2023/03/13 08:03:08;;;;;;;8.33;7.53;;;;;;;-145.53;100.00;64590.91;6271130;28;20447;-62
2023/03/13 08:06:19;;;;;;;7.67;7.07;;;;;;;-145.53;100.00;64590.91;6267031;28;20927;-63
2023/03/13 08:09:33;;;;;;;9.80;7.70;;;;;;;-145.53;100.00;64590.91;6265959;28;21062;-62
2023/03/13 08:12:45;;;;;;;8.07;7.37;;;;;;;-145.53;100.00;64590.91;6271854;28;20420;-63
2023/03/13 08:16:03;;;;;;;7.63;6.93;;;;;;;-145.53;100.00;64590.91;6271954;28;20424;-62
2023/03/13 08:19:08;;;;;;;7.40;6.77;;;;;;;-145.53;100.00;64590.91;6235842;28;20437;-61
2023/03/13 08:22:17;;;;;;;7.53;6.83;;;;;;;-145.53;100.00;64590.91;6263617;28;20561;-61
2023/03/13 08:25:28;;;;;;;7.67;6.97;;;;;;;-145.53;100.00;64590.91;6271836;28;20439;-61
2023/03/13 08:28:42;;;;;;;7.60;6.93;;;;;;;-145.53;100.00;64590.91;6271429;28;20420;-63
2023/03/13 08:31:55;;;;;;;7.93;7.20;;;;;;;-145.53;100.00;64590.91;6264220;28;20510;-62
2023/03/13 08:35:04;;;;;;;7.70;7.00;;;;;;;-145.53;100.00;64590.91;6276081;28;20420;-61
2023/03/13 08:38:14;;;;;;;7.93;7.10;;;;;;;-145.53;100.00;64590.91;6276108;28;20954;-61
2023/03/13 08:41:24;;;;;;;7.77;7.10;;;;;;;-145.53;100.00;64590.91;6265137;28;20580;-62
2023/03/13 08:44:36;;;;;;;7.70;7.00;;;;;;;-145.53;100.00;64590.91;6275855;28;20929;-61
2023/03/13 08:47:45;;;;;;;7.40;6.80;;;;;;;-145.53;100.00;64590.91;6275722;28;20454;-62
2023/03/13 08:51:03;;;;;;;7.07;6.47;;;;;;;-145.53;100.00;64590.91;6275675;28;20427;-61
2023/03/13 08:54:15;;;;;;;7.63;6.80;;;;;;;-145.53;100.00;64590.91;6264431;28;20447;-63
2023/03/13 08:57:21;;;;;;;7.23;6.53;;;;;;;-145.53;100.00;64590.91;6275247;28;20786;-62
2023/03/13 09:00:31;;;;;;;7.07;6.47;;;;;;;-145.53;100.00;64590.91;6275477;28;20514;-61
2023/03/13 09:03:45;;;;;;;7.63;7.00;;;;;;;-145.53;100.00;64590.91;6267561;28;20447;-61
2023/03/13 09:06:55;;;;;;;7.50;6.80;;;;;;;-145.53;100.00;64590.91;6274416;28;20442;-61
2023/03/13 09:10:14;;;;;;;7.27;6.67;;;;;;;-145.53;100.00;64590.91;6250811;28;20479;-65
2023/03/13 09:13:22;;;;;;;7.80;7.10;;;;;;;-145.53;100.00;64590.91;6250571;28;20439;-62
2023/03/13 09:16:33;;;;;;;7.70;7.00;;;;;;;-145.53;100.00;64590.91;6239197;28;20943;-59
2023/03/13 09:19:44;;;;;;;6.13;5.53;;;;;;;-145.53;100.00;64590.91;6250676;28;20457;-59
2023/03/13 09:23:06;;;;;;;6.57;6.07;;;;;;;-145.53;100.00;64590.91;6250471;28;20479;-59
2023/03/13 09:26:18;;;;;;;6.57;5.97;;;;;;;-145.53;100.00;64590.91;6245104;28;20448;-59
2023/03/13 09:29:30;;;;;;;7.60;6.90;;;;;;;-145.53;100.00;64590.91;6245698;28;20515;-59
2023/03/13 09:32:45;;;;;;;6.27;5.77;;;;;;;-145.53;100.00;64590.91;6250453;28;20563;-58
2023/03/13 09:35:55;;;;;;;6.03;5.53;;;;;;;-145.53;100.00;64590.91;6250364;28;20806;-59
2023/03/13 09:39:05;;;;;;;6.47;5.87;;;;;;;-145.53;100.00;64590.91;6254876;28;20562;-59
2023/03/13 09:42:21;;;;;;;6.20;5.70;;;;;;;-145.53;100.00;64590.91;6274462;28;20432;-61
2023/03/13 09:45:36;;;;;;;6.50;6.00;;;;;;;-145.53;100.00;64590.91;6274498;28;20466;-58
2023/03/13 09:48:51;;;;;;;6.30;5.80;;;;;;;-145.53;100.00;64590.91;6274478;28;20428;-59
2023/03/13 09:52:19;;;;;;;6.37;5.80;;;;;;;-145.53;100.00;64590.91;6268225;28;20450;-58
2023/03/13 09:55:31;;;;;;;6.50;5.90;;;;;;;-145.53;100.00;64590.91;6274285;28;20439;-59
2023/03/13 09:58:48;;;;;;;6.60;5.87;;;;;;;-145.53;100.00;64590.91;6274349;28;20434;-60
2023/03/13 10:02:03;;;;;;;5.53;5.10;;;;;;;-145.53;100.00;64590.91;6262403;28;20614;-58
2023/03/13 10:05:21;;;;;;;6.20;5.20;;;;;;;-145.53;100.00;64590.91;6274277;28;20789;-60
2023/03/13 10:08:33;;;;;;;6.47;5.57;;;;;;;-145.53;100.00;64590.91;6274134;28;20423;-60
2023/03/13 10:11:49;;;;;;;5.60;5.13;;;;;;;-145.53;100.00;64590.91;6272907;28;20908;-60
2023/03/13 10:15:17;;;;;;;5.43;5.03;;;;;;;-145.53;100.00;64590.91;6267861;28;20436;-58
2023/03/13 10:18:26;;;;;;;5.53;5.07;;;;;;;-145.53;100.00;64590.91;6273830;28;20847;-58
2023/03/13 10:21:38;;;;;;;4.97;4.57;;;;;;;-145.53;100.00;64590.91;6274653;28;20435;-59
2023/03/13 10:24:56;;;;;;;5.17;4.77;;;;;;;-145.53;100.00;64590.91;6262862;28;20581;-59
2023/03/13 10:28:08;;;;;;;5.70;5.20;;;;;;;-145.53;100.00;64590.91;6273705;28;20935;-59
2023/03/13 10:31:31;;;;;;;5.00;4.60;;;;;;;-145.53;100.00;64590.91;6273652;28;20423;-61
2023/03/13 10:34:56;;;;;;;5.57;5.10;;;;;;;-145.53;100.00;64590.91;6270276;28;20423;-59
2023/03/13 10:38:05;;;;;;;6.13;5.53;;;;;;;-145.53;100.00;64590.91;6267823;28;20970;-60
2023/03/13 10:41:31;;;;;;;4.83;4.43;;;;;;;-145.53;100.00;64590.91;6273574;28;20426;-60
2023/03/13 10:44:41;;;;;;;5.23;4.77;;;;;;;-145.53;100.00;64590.91;6273451;28;20439;-61
2023/03/13 10:47:58;;;;;;;5.03;4.63;;;;;;;-145.53;100.00;64590.91;6262381;28;20447;-64
2023/03/13 10:51:23;;;;;;;5.17;4.77;;;;;;;-145.53;100.00;64590.91;6273255;28;20423;-59
2023/03/13 10:54:37;;;;;;;5.40;4.90;;;;;;;-145.53;100.00;64590.91;6272439;28;20477;-60
2023/03/13 10:58:00;;;;;;;4.87;4.47;;;;;;;-145.53;100.00;64590.91;6267695;28;20427;-60
2023/03/13 11:01:21;;;;;;;5.00;4.60;;;;;;;-145.53;100.00;64590.91;6271087;28;20527;-58
2023/03/13 11:04:32;;;;;;;5.20;4.80;;;;;;;-145.53;100.00;64590.91;6272618;28;20470;-58
2023/03/13 11:07:44;;;;;;;4.17;3.87;;;;;;;-145.53;100.00;64590.91;6272372;28;20533;-59
2023/03/13 11:11:02;;;;;;;4.50;4.20;;;;;;;-145.53;100.00;64590.91;6261787;28;20440;-59
2023/03/13 11:14:17;;;;;;;4.50;4.10;;;;;;;-145.53;100.00;64590.91;6272756;28;20506;-59
2023/03/13 11:17:31;;;;;;;5.30;4.90;;;;;;;-145.53;100.00;64590.91;6272820;28;20498;-59
2023/03/13 11:20:41;;;;;;;4.77;4.33;;;;;;;-145.53;100.00;64590.91;6267646;28;20518;-59
2023/03/13 11:23:55;;;;;;;4.30;3.90;;;;;;;-145.53;100.00;64590.91;6266851;28;20989;-58
2023/03/13 11:27:18;;;;;;;4.87;4.47;;;;;;;-145.53;100.00;64590.91;6272789;28;20424;-58
2023/03/13 11:30:46;;;;;;;4.00;3.70;;;;;;;-145.53;100.00;64590.91;6273128;28;20420;-59
2023/03/13 11:34:04;;;;;;;4.73;4.33;;;;;;;-145.53;100.00;64590.91;6262366;28;20434;-59
2023/03/13 11:37:18;;;;;;;4.57;4.17;;;;;;;-145.53;100.00;64590.91;6272991;28;20416;-59
2023/03/13 11:40:32;;;;;;;4.70;4.30;;;;;;;-145.53;100.00;64590.91;6247910;28;20421;-59
2023/03/13 11:43:58;;;;;;;4.03;3.73;;;;;;;-145.53;100.00;64590.91;6243453;28;20513;-60
2023/03/13 11:47:29;;;;;;;3.67;3.37;;;;;;;-145.53;100.00;64590.91;6248335;28;20444;-59
2023/03/13 11:50:44;;;;;;;4.50;4.10;;;;;;;-145.53;100.00;64590.91;6247962;28;20778;-58
2023/03/13 11:54:20;;;;;;;4.20;3.90;;;;;;;-145.53;100.00;64590.91;6247608;28;20424;-58
2023/03/13 11:57:34;;;;;;;4.50;4.17;;;;;;;-145.53;100.00;64590.91;6236408;28;20436;-59
2023/03/13 12:00:49;;;;;;;3.80;3.50;;;;;;;-145.53;100.00;64590.91;6246969;28;20417;-58
2023/03/13 12:04:11;;;;;;;4.33;3.93;;;;;;;-145.53;100.00;64590.91;6246728;28;20490;-59
2023/03/13 12:07:28;;;;;;;4.60;4.20;;;;;;;-145.53;100.00;64590.91;6236413;28;20452;-58
2023/03/13 12:10:43;;;;;;;4.10;3.80;;;;;;;-145.53;100.00;64590.91;6272159;28;20918;-60
2023/03/13 12:13:59;;;;;;;3.80;3.50;;;;;;;-145.53;100.00;64590.91;6271671;28;20449;-59
2023/03/13 12:17:11;;;;;;;4.23;3.93;;;;;;;-145.53;100.00;64590.91;6272097;28;20424;-59
2023/03/13 12:20:28;;;;;;;3.70;3.40;;;;;;;-145.53;100.00;64590.91;6260855;28;20446;-60
2023/03/13 12:23:46;;;;;;;4.03;3.67;;;;;;;-145.53;100.00;64590.91;6271901;28;20428;-59
2023/03/13 12:26:56;;;;;;;3.80;3.50;;;;;;;-145.53;100.00;64590.91;6271456;28;20427;-58
2023/03/13 12:30:21;;;;;;;3.70;3.40;;;;;;;-145.53;100.00;64590.91;6260400;28;20447;-59
2023/03/13 12:33:39;;;;;;;3.60;3.40;;;;;;;-145.53;100.00;64590.91;6271735;28;20836;-58
2023/03/13 12:36:54;;;;;;;3.67;3.37;;;;;;;-145.53;100.00;64590.91;6271723;28;20428;-59
2023/03/13 12:40:14;;;;;;;3.70;3.40;;;;;;;-145.53;100.00;64590.91;6271549;28;20439;-59
2023/03/13 12:43:31;;;;;;;3.83;3.53;;;;;;;-145.53;100.00;64590.91;6263779;28;20931;-60
2023/03/13 12:46:45;;;;;;;4.00;3.67;;;;;;;-145.53;100.00;64590.91;6271105;28;20850;-60
2023/03/13 12:50:20;;;;;;;4.40;4.00;;;;;;;-145.53;100.00;64590.91;6271576;28;20535;-62
2023/03/13 12:54:05;;;;;;;4.50;3.87;;;;;;;-145.53;100.00;64590.91;6260318;28;20447;-59
2023/03/13 12:57:42;;;;;;;3.23;2.93;;;;;;;-145.53;100.00;64590.91;6271460;28;20439;-60
2023/03/13 13:00:56;;;;;;;3.70;3.40;;;;;;;-145.53;100.00;64590.91;6271214;28;20935;-63
2023/03/13 13:04:07;;;;;;;3.97;3.63;;;;;;;-145.53;100.00;64590.91;6260551;28;21078;-59
2023/03/13 13:07:25;;;;;;;3.80;3.50;;;;;;;-145.53;100.00;64590.91;6270764;28;20455;-59
2023/03/13 13:10:35;;;;;;;3.93;3.63;;;;;;;-145.53;100.00;64590.91;6246618;28;20424;-58
2023/03/13 13:13:41;;;;;;;3.33;3.03;;;;;;;-145.53;100.00;64590.91;6246144;28;20907;-59
2023/03/13 13:16:53;;;;;;;3.40;3.20;;;;;;;-145.53;100.00;64590.91;6234964;28;20452;-60
2023/03/13 13:20:00;;;;;;;4.00;3.70;;;;;;;-145.53;100.00;64590.91;6250494;28;20432;-60
2023/03/13 13:23:25;;;;;;;3.27;2.97;;;;;;;-145.53;100.00;64590.91;6250420;28;20424;-59
2023/03/13 13:26:53;;;;;;;3.67;3.37;;;;;;;-145.53;100.00;64590.91;6245477;28;21168;-62
2023/03/13 13:30:04;;;;;;;3.90;3.60;;;;;;;-145.53;100.00;64590.91;6249981;28;20529;-60
2023/03/13 13:33:39;;;;;;;4.20;3.90;;;;;;;-145.53;100.00;64590.91;6250219;28;20514;-59
2023/03/13 13:36:54;;;;;;;3.93;3.53;;;;;;;-145.53;100.00;64590.91;6250708;28;20424;-60
2023/03/13 13:40:27;;;;;;;3.67;3.37;;;;;;;-145.53;100.00;64590.91;6260856;28;20858;-59
2023/03/13 13:43:38;;;;;;;3.33;3.03;;;;;;;-145.53;100.00;64590.91;6274702;28;20455;-58
2023/03/13 13:46:47;;;;;;;3.40;3.20;;;;;;;-145.53;100.00;64590.91;6274599;28;20424;-59
2023/03/13 13:49:58;;;;;;;3.90;3.60;;;;;;;-145.53;100.00;64590.91;6264005;28;20985;-59
2023/03/13 13:53:29;;;;;;;3.30;3.10;;;;;;;-145.53;100.00;64590.91;6274304;28;20419;-58
2023/03/13 13:56:44;;;;;;;3.93;3.63;;;;;;;-145.53;100.00;64590.91;6274401;28;20896;-62
2023/03/13 13:59:55;;;;;;;3.80;3.50;;;;;;;-145.53;100.00;64590.91;6274227;28;20419;-62
2023/03/13 14:03:00;;;;;;;3.70;3.03;;;;;;;-145.53;100.00;64590.91;6262540;28;20969;-60
2023/03/13 14:06:19;;;;;;;7.30;3.47;;;;;;;-145.53;100.00;64590.91;6274279;28;20462;-60
2023/03/13 14:09:38;;;;;;;3.87;3.57;;;;;;;-145.53;100.00;64590.91;6274335;28;20462;-61
2023/03/13 14:12:53;;;;;;;3.83;3.30;;;;;;;-145.53;100.00;64590.91;6263255;28;20443;-62
2023/03/13 14:16:25;;;;;;;3.20;3.00;;;;;;;-145.53;100.00;64590.91;6273705;28;20598;-61
2023/03/13 14:19:40;;;;;;;3.43;3.03;;;;;;;-145.53;100.00;64590.91;6274098;28;20412;-61
2023/03/13 14:22:52;;;;;;;3.53;3.20;;;;;;;-145.53;100.00;64590.91;6274032;28;20453;-60
2023/03/13 14:26:03;;;;;;;3.00;2.70;;;;;;;-145.53;100.00;64590.91;6262178;28;20462;-61
2023/03/13 14:29:24;;;;;;;3.20;3.00;;;;;;;-145.53;100.00;64590.91;6272653;28;20431;-59
2023/03/13 14:32:36;;;;;;;3.83;3.53;;;;;;;-145.53;100.00;64590.91;6273887;28;20435;-59
2023/03/13 14:35:44;;;;;;;3.33;3.13;;;;;;;-145.53;100.00;64590.91;6253802;28;20467;-59